Aeroporto :
LOGIN :

Iscrizione | Disclaimer

   EN    FR    IT 

 










Sommario :    VFR   VFR Marginale   IFR   IFR Intensivo   IFR Molto Intensivo
Visibilità : 
Base nubi : 
>= 8 km
>= 3000ft
5 / 8 km
1000 / 3000 ft
1500m / 5 km
500 / 1000 ft
800 / 1500m
200 / 500 ft
< 800m
< 200 ft
Simboli :   Temporali  Nebbia  Neve Forte  Precipitazioni Forti  Vento > 20 kt
SIGMETs :   Varie  Temporali  Ghiacco  Turbolenza  Onda orograficha  Ceneri Vulcaniche







- Altitudine del aeroporto : 137 ft


LIPS - Istrana AFB Treviso

ULTIMO METAR :
  • 260455Z 04006KT 3800 BR SCT018 BKN025 15/13 Q1015 RMK OVC VIS MIN 3800 WIND THR26 02006KT WIND THR08 05007KT GRN

METARs OBSOLETI :
  • 260355Z 03005KT 3000 BR SCT015 BKN040 15/14 Q1015 RMK BKN VIS MIN 3000 WIND THR26 02006KT WIND THR08 05005KT YLO
  • 260255Z 07007KT 5000 -RA BR FEW012CB BKN015 16/14 Q1016 RMK OVC VIS MIN 5000 WIND THR26 02007KT WIND THR08 06009KT WHT

TAF TAF LIPS
Valido dal 26 a 06 ore il 26 a 15 ore UTC


260500Z 2606/2615 06005KT 3000 BR SCT010 BKN030
BECMG 2607/2609 6000 RA BKN020
PROB40
TEMPO 2610/2615 3000 TSRA SCT020CB
Nessun NOTAM noto per questo aeroporto.
4 SIGMETs conosciuti per la FIR Milano (LIMM) :
 
Turbolenza severa
LIMM SIGMET 4 VALID 260445/260845 LIIP
LIMM MILANO FIR SEV TURB FCST ENTIRE FIR FL220/380 MOV E WKN=
Temporali affogati
LIMM SIGMET 3 VALID 260445/260845 LIIP
LIMM MILANO FIR EMBD TS FCST N OF LINE N4407 E00650 - N4507 E01311 TOP FL320 STNR NC=
Turbolenza severa
LIMM SIGMET 2 VALID 260045/260445 LIIP
LIMM MILANO FIR SEV TURB FCST W OF LINE N4314 E00859 - N4652 E01229 FL220/380 STNR NC=
Temporali affogati
LIMM SIGMET 1 VALID 260045/260445 LIIP
LIMM MILANO FIR EMBD TS FCST N OF LINE N4407 E00650 - N4507 E01311 TOP FL320 STNR NC=



MetMap, La meteo Aeronautica in un colpo d'occhio ! - Copyright ORBIFLY Dicembre 2007 - Disclaimer

ORBIFLY MET'MAP TEAM :

Programmazione e sviluppo : Alexandra Zaïnal
Concezione e sviluppo : Baudouin d'Aumeries
Co-Programmazione e sviluppo : Marc-Olivier Méhu
Supporto tecnico e logistico : Manuel Goepfert
Aiuto per la traduzione : Arnaldo La Scala

Contatto : metmap@orbifly.com




FONTI E CREDITI :

   NOAA